CST,Max TemperatureF,Mean TemperatureF,Min TemperatureF,Max Dew PointF,MeanDew PointF,Min DewpointF,Max Humidity, Mean Humidity, Min Humidity, Max Sea Level PressureIn, Mean Sea Level PressureIn, Min Sea Level PressureIn, Max VisibilityMiles, Mean VisibilityMiles, Min VisibilityMiles, Max Wind SpeedMPH, Mean Wind SpeedMPH, Max Gust SpeedMPH,PrecipitationIn, CloudCover, Events, WindDirDegrees
2012-12-1,62,48,34,55,47,33,93,86,78,30.08,29.95,29.85,10,8,5,14,8,20,T,6,,176
2012-12-2,60,55,49,55,52,48,100,90,80,30.01,29.96,29.85,10,4,0,10,4,14,0.00,6,Fog,212
2012-12-3,72,61,49,61,54,39,100,80,60,29.97,29.86,29.73,10,7,1,28,13,36,T,5,,190
2012-12-4,62,50,38,38,31,24,76,50,23,30.32,30.17,29.99,10,10,8,16,7,21,0.00,0,,323
2012-12-5,47,39,30,33,27,22,79,62,45,30.42,30.30,30.12,10,10,10,14,9,21,0.00,0,,105
2012-12-6,50,44,38,43,36,32,92,74,56,30.12,29.99,29.90,10,9,3,16,7,21,0.06,4,Rain,191
2012-12-7,44,41,38,41,39,37,96,93,89,29.96,29.91,29.86,8,5,2,13,7,16,0.18,8,Rain,25
2012-12-8,38,37,35,36,33,32,92,87,82,30.05,30.00,29.91,10,7,2,14,7,18,0.00,8,,42
2012-12-9,42,34,26,40,35,20,100,88,75,29.99,29.87,29.78,10,6,1,20,8,28,0.05,8,Rain,47
2012-12-10,29,24,18,21,19,15,92,81,69,30.05,29.95,29.88,10,10,10,18,9,25,0.00,6,,298
2012-12-11,37,27,16,23,19,14,84,68,52,30.17,30.07,30.02,10,10,8,14,7,18,0.00,1,,211
2012-12-12,48,36,23,24,22,19,81,60,38,30.27,30.21,30.17,10,10,10,18,11,24,0.00,0,,189
2012-12-13,51,41,31,27,23,20,64,50,35,30.23,30.16,30.08,10,10,10,24,11,31,0.00,0,,197
2012-12-14,53,42,30,38,29,24,78,58,38,30.16,30.07,29.91,10,10,7,15,7,18,0.07,2,Rain,176
2012-12-15,51,46,41,48,44,36,96,88,80,29.87,29.62,29.52,10,8,2,18,12,26,0.46,8,Rain,194
2012-12-16,48,43,37,43,36,31,89,84,79,29.78,29.71,29.62,10,9,6,15,6,20,0.00,8,,290
2012-12-17,37,33,29,34,31,28,100,88,76,29.77,29.73,29.68,10,4,1,8,2,10,0.00,6,,318
2012-12-18,53,40,27,39,31,27,100,77,54,29.91,29.71,29.52,10,6,2,28,12,38,0.00,5,,222
2012-12-19,39,36,33,36,33,30,89,86,82,30.02,29.82,29.56,8,5,2,22,9,28,0.61,8,Rain-Thunderstorm,71
2012-12-20,41,30,19,32,23,14,100,91,81,29.93,29.46,29.21,10,3,0,37,22,56,0.48,8,Fog-Rain-Snow-Thunderstorm,344
2012-12-21,27,20,12,16,11,8,84,73,62,30.31,30.20,29.96,10,10,10,23,11,35,0.00,0,,306
2012-12-22,36,23,9,20,15,7,92,68,43,30.30,30.12,29.96,10,9,6,14,4,16,0.00,0,,163
2012-12-23,29,21,12,23,18,12,96,80,63,30.06,29.99,29.94,10,7,5,14,8,17,0.00,2,,29
2012-12-24,26,23,19,25,19,13,96,84,71,30.17,29.99,29.88,9,4,0,16,10,23,T,7,Fog-Snow,322
2012-12-25,24,20,16,19,14,12,88,80,71,30.37,30.28,30.20,10,10,10,21,12,25,0.00,3,,6
2012-12-26,27,23,19,20,17,14,84,76,68,30.22,30.17,30.11,10,10,10,17,11,22,0.00,8,,351
2012-12-27,30,22,13,22,18,10,88,76,63,30.24,30.16,30.09,10,10,10,15,7,20,0.00,5,,90
2012-12-28,30,29,28,27,25,21,92,84,75,30.07,29.98,29.91,10,7,4,9,4,13,0.00,8,,109
2012-12-29,28,20,11,25,18,9,88,78,67,30.31,30.09,29.93,9,5,2,20,8,25,T,6,Snow,308
2012-12-30,37,25,12,26,19,10,96,75,54,30.37,30.26,30.09,10,9,4,18,9,25,0.00,0,,205
2012-12-31,36,28,19,25,18,10,78,69,59,30.22,30.14,30.08,10,9,1,16,10,21,T,7,Snow,314